Flight Track Log - Related Links

Times and Time Zones

All times are in EDT time to prevent confusion due to time zone crossing. See the SLI679 flight status page for this flight to view local times or setup timezone preferences in your user account.

Time Position Orientation Groundspeed Altitude Reporting Facility
EDT Latitude Longitude Course Direction KTS MPH feet Rate Location/Type
Tue 09:30:00 PM 14.7761 -90.8482 302° West  Level Estimated
Tue 09:31:00 PM 14.8243 -90.9285 302° West  Level Estimated
Tue 09:32:00 PM 14.8724 -91.0088 302° West  Level Estimated
Tue 09:33:00 PM 14.9205 -91.0891 302° West  Level Estimated
Tue 09:34:00 PM 14.9686 -91.1695 302° West  Level Estimated
Tue 09:35:00 PM 15.0166 -91.2499 302° West  Level Estimated
Tue 09:36:00 PM 15.0646 -91.3304 302° West  Level Estimated
Tue 09:37:00 PM 15.1126 -91.4109 302° West  Level Estimated
Tue 09:38:00 PM 15.1606 -91.4914 302° West  Level Estimated
Tue 09:39:00 PM 15.2085 -91.5720 302° West  Level Estimated
Tue 09:40:00 PM 15.2564 -91.6526 302° West  Level Estimated
Tue 09:41:00 PM 15.3042 -91.7332 302° West  Level Estimated
Tue 09:42:00 PM 15.3521 -91.8139 302° West  Level Estimated
Tue 09:43:00 PM 15.3999 -91.8946 302° West  Level Estimated
Tue 09:44:00 PM 15.4477 -91.9753 302° West  Level Estimated
Tue 09:45:00 PM 15.4954 -92.0561 302° West  Level Estimated
Tue 09:46:00 PM 15.5431 -92.1369 302° West  Level Estimated
Tue 09:47:00 PM 15.5908 -92.2178 301° West  Level Estimated
Tue 09:48:00 PM 15.6385 -92.2987 301° West  Level Estimated
Tue 09:49:00 PM 15.6861 -92.3796 301° West  Level Estimated
Tue 09:50:00 PM 15.7337 -92.4606 301° West  Level Estimated
Tue 09:51:00 PM 15.7813 -92.5416 301° West  Level Estimated
Tue 09:52:00 PM 15.8288 -92.6227 301° West  Level Estimated
Tue 09:53:00 PM 15.8764 -92.7038 301° West  Level Estimated
Tue 09:54:00 PM 15.9238 -92.7849 301° West  Level Estimated
Tue 09:55:00 PM 15.9713 -92.8660 301° West  Level Estimated
Tue 09:56:00 PM 16.0187 -92.9472 301° West  Level Estimated
Tue 09:57:00 PM 16.0661 -93.0285 301° West  Level Estimated
Tue 09:58:00 PM 16.1134 -93.1098 301° West  Level Estimated
Tue 09:59:00 PM 16.1608 -93.1911 301° West  Level Estimated
Tue 10:00:00 PM 16.2081 -93.2724 301° West  Level Estimated
Tue 10:01:00 PM 16.2554 -93.3538 301° West  Level Estimated
Tue 10:02:00 PM 16.3026 -93.4353 301° West  Level Estimated
Tue 10:03:00 PM 16.3498 -93.5167 301° West  Level Estimated
Tue 10:04:00 PM 16.3970 -93.5983 301° West  Level Estimated
Tue 10:05:00 PM 16.4441 -93.6798 301° West  Level Estimated
Tue 10:06:00 PM 16.4912 -93.7614 301° West  Level Estimated
Tue 10:07:00 PM 16.5383 -93.8430 301° West  Level Estimated
Tue 10:08:00 PM 16.5854 -93.9247 301° West  Level Estimated
Tue 10:09:00 PM 16.6324 -94.0064 301° West  Level Estimated
Tue 10:10:00 PM 16.6793 -94.0882 301° West  Level Estimated
Tue 10:11:00 PM 16.7263 -94.1699 301° West  Level Estimated
Tue 10:12:00 PM 16.7732 -94.2518 301° West  Level Estimated
Tue 10:13:00 PM 16.8201 -94.3336 301° West  Level Estimated
Tue 10:14:00 PM 16.8670 -94.4156 301° West  Level Estimated
Tue 10:15:00 PM 16.9138 -94.4975 301° West  Level Estimated
Tue 10:16:00 PM 16.9606 -94.5795 301° West  Level Estimated
Tue 10:17:00 PM 17.0073 -94.6615 301° West  Level Estimated
Tue 10:18:00 PM 17.0541 -94.7436 301° West  Level Estimated
Tue 10:19:00 PM 17.1007 -94.8257 301° West  Level Estimated
Tue 10:20:00 PM 17.1474 -94.9079 301° West  Level Estimated
Tue 10:21:00 PM 17.1940 -94.9901 301° West  Level Estimated
Tue 10:22:00 PM 17.2406 -95.0723 301° West  Level Estimated
Tue 10:23:00 PM 17.2872 -95.1546 301° West  Level Estimated
Tue 10:24:00 PM 17.3337 -95.2369 301° West  Level Estimated
Tue 10:25:00 PM 17.3802 -95.3193 301° West  Level Estimated
Tue 10:26:00 PM 17.4266 -95.4017 301° West  Level Estimated
Tue 10:27:00 PM 17.4731 -95.4842 301° West  Level Estimated
Tue 10:28:00 PM 17.5194 -95.5667 301° West  Level Estimated
Tue 10:29:00 PM 17.5658 -95.6492 301° West  Level Estimated
Tue 10:30:00 PM 17.6121 -95.7318 300° West  Level Estimated
Tue 10:31:00 PM 17.6584 -95.8144 300° West  Level Estimated
Tue 10:32:00 PM 17.7047 -95.8970 300° West  Level Estimated
Tue 10:33:00 PM 17.7509 -95.9797 300° West  Level Estimated
Tue 10:34:00 PM 17.7971 -96.0625 300° West  Level Estimated
Tue 10:35:00 PM 17.8432 -96.1453 300° West  Level Estimated
Tue 10:36:00 PM 17.8893 -96.2281 300° West  Level Estimated
Tue 10:37:00 PM 17.9354 -96.3110 300° West  Level Estimated
Tue 10:38:00 PM 17.9814 -96.3939 300° West  Level Estimated
Tue 10:39:00 PM 18.0275 -96.4769 300° West  Level Estimated
Tue 10:40:00 PM 18.0734 -96.5599 300° West  Level Estimated
Tue 10:41:00 PM 18.1194 -96.6429 300° West  Level Estimated
Tue 10:42:00 PM 18.1653 -96.7260 300° West  Level Estimated
Tue 10:43:00 PM 18.2111 -96.8092 300° West  Level Estimated
Tue 10:44:00 PM 18.2570 -96.8923 300° West  Level Estimated
Tue 10:45:00 PM 18.3027 -96.9756 300° West  Level Estimated
Tue 10:46:00 PM 18.3485 -97.0588 300° West  Level Estimated
Tue 10:47:00 PM 18.3942 -97.1421 300° West  Level Estimated
Tue 10:48:00 PM 18.4399 -97.2255 300° West  Level Estimated
Tue 10:49:00 PM 18.4856 -97.3089 300° West  Level Estimated
Tue 10:50:00 PM 18.5312 -97.3923 300° West  Level Estimated
Tue 10:51:00 PM 18.5768 -97.4758 300° West  Level Estimated
Tue 10:52:00 PM 18.6223 -97.5594 300° West  Level Estimated
Tue 10:53:00 PM 18.6678 -97.6429 300° West  Level Estimated
Tue 10:54:00 PM 18.7133 -97.7266 300° West  Level Estimated
Tue 10:55:00 PM 18.7587 -97.8102 300° West  Level Estimated
Tue 10:56:00 PM 18.8041 -97.8939 300° West  Level Estimated
Tue 10:57:00 PM 18.8494 -97.9777 300° West  Level Estimated
Tue 10:58:00 PM 18.8948 -98.0615 300° West  Level Estimated
Tue 10:59:00 PM 18.9400 -98.1453 300° West  Level Estimated
Tue 11:00:00 PM 18.9853 -98.2292 300° West  Level Estimated
Tue 11:01:00 PM 19.0305 -98.3132 300° West  Level Estimated
Tue 11:02:00 PM 19.0756 -98.3972 300° West  Level Estimated
Tue 11:03:00 PM 19.1208 -98.4812 300° West  Level Estimated
Tue 11:04:00 PM 19.1658 -98.5653 300° West  Level Estimated
Tue 11:05:00 PM 19.2109 -98.6494 300° West  Level Estimated
Tue 11:06:00 PM 19.2559 -98.7336 300° West  Level Estimated
Tue 11:07:00 PM 19.3009 -98.8178 300° West  Level Estimated
Tue 11:08:00 PM 19.3458 -98.9021 299° West  Level Estimated
Tue 11:09:00 PM 19.3907 -98.9864 299° West  Level Estimated
Tue 11:10:00 PM 19.4356 -99.0707 299° West  Level Estimated
Tue 11:11:00 PM 19.4363 -99.0721 300° West  Level Estimated
Tue 11:12:00 PM 19.4363 -99.0721 43° Northeast  Level Estimated
Tue 11:13:00 PM 19.4363 -99.0721 43° Northeast  Level Estimated
Tue 11:14:00 PM 19.4363 -99.0721 43° Northeast  Level Estimated
Tue 11:15:00 PM 19.4363 -99.0721 43° Northeast  Level Estimated
Tue 11:16:00 PM 19.4363 -99.0721 43° Northeast  Level Estimated
Tue 11:17:00 PM 19.4363 -99.0721 43° Northeast  Level Estimated
Tue 11:18:00 PM 19.4363 -99.0721 43° Northeast  Level Estimated
Tue 11:19:00 PM 19.4363 -99.0721 43° Northeast  Level Estimated
Tue 11:20:00 PM 19.4363 -99.0721 43° Northeast  Level Estimated
Tue 11:21:00 PM 19.4363 -99.0721 43° Northeast  Level Estimated
Tue 11:22:00 PM 19.4363 -99.0721 43° Northeast  Level Estimated
Tue 11:23:00 PM 19.4363 -99.0721 43° Northeast  Level Estimated
Tue 11:24:00 PM 19.4363 -99.0721 43° Northeast  Level Estimated
Tue 11:25:00 PM 19.4363 -99.0721 43° Northeast  Level Estimated
Tue 11:26:00 PM 19.4363 -99.0721 43° Northeast  Level Estimated

Login

Don't have an account? Register now (free) for customized features, flight alerts, and more!